Time;durP1;ratioP1;P1;durP2;ratioP2;P2;SDS_P1;SDS_P2;PMS_P1;PMS_P2;Temp;Humidity;BMP_temperature;BMP_pressure;BME280_temperature;BME280_humidity;BME280_pressure;Samples;Min_cycle;Max_cycle;Signal;HPM_P1;HPM_P2
2023/05/24 00:02:05;;;;;;;5.35;4.47;;;;;;;;;;5013308;28;20038;-66
2023/05/24 00:04:31;;;;;;;4.72;4.10;;;;;;;;;;5013597;28;20030;-65
2023/05/24 00:06:57;;;;;;;4.50;4.10;;;;;;;;;;5013167;28;20022;-66
2023/05/24 00:09:22;;;;;;;4.82;4.38;;;;;;;;;;5013223;28;20038;-66
2023/05/24 00:11:48;;;;;;;4.18;3.83;;;;;;;;;;5013371;28;20112;-66
2023/05/24 00:14:13;;;;;;;5.28;4.78;;;;;;;;;;5013184;28;20095;-65
2023/05/24 00:16:39;;;;;;;4.60;4.10;;;;;;;;;;5013117;28;20030;-65
2023/05/24 00:19:05;;;;;;;4.25;3.85;;;;;;;;;;5013034;28;20030;-65
2023/05/24 00:21:31;;;;;;;4.70;4.28;;;;;;;;;;5013256;28;20030;-66
2023/05/24 00:23:56;;;;;;;4.35;3.95;;;;;;;;;;5012962;28;20034;-65
2023/05/24 00:26:22;;;;;;;4.68;4.28;;;;;;;;;;5013219;28;20034;-65
2023/05/24 00:28:49;;;;;;;5.88;4.20;;;;;;;;;;5013021;28;20074;-66
2023/05/24 00:31:14;;;;;;;4.53;4.03;;;;;;;;;;5012851;28;20496;-65
2023/05/24 00:33:40;;;;;;;4.03;3.60;;;;;;;;;;5012970;28;20025;-66
2023/05/24 00:36:06;;;;;;;4.38;3.97;;;;;;;;;;5013135;28;20049;-65
2023/05/24 00:38:31;;;;;;;4.07;3.78;;;;;;;;;;5012656;28;20046;-66
2023/05/24 00:40:58;;;;;;;4.47;3.95;;;;;;;;;;5012686;28;20037;-65
2023/05/24 00:43:24;;;;;;;4.70;4.30;;;;;;;;;;5013054;28;20030;-65
2023/05/24 00:46:20;;;;;;;4.78;4.38;;;;;;;;;;5012676;28;20555;-65
2023/05/24 00:48:48;;;;;;;4.70;4.30;;;;;;;;;;5011359;28;20076;-65
2023/05/24 00:51:14;;;;;;;4.88;4.43;;;;;;;;;;5012522;28;20477;-65
2023/05/24 00:53:41;;;;;;;5.85;4.28;;;;;;;;;;5012566;28;20034;-66
2023/05/24 00:56:07;;;;;;;4.40;4.00;;;;;;;;;;5012586;28;20073;-65
2023/05/24 00:58:33;;;;;;;4.95;3.97;;;;;;;;;;5012608;28;20113;-65
2023/05/24 01:01:00;;;;;;;4.80;4.20;;;;;;;;;;5012590;28;20105;-65
2023/05/24 01:03:29;;;;;;;4.22;3.88;;;;;;;;;;5012607;28;20076;-65
2023/05/24 01:06:00;;;;;;;4.80;4.03;;;;;;;;;;5012505;28;20026;-66
2023/05/24 01:08:41;;;;;;;4.53;4.05;;;;;;;;;;5012485;28;20033;-66
2023/05/24 01:11:33;;;;;;;4.55;4.13;;;;;;;;;;5012555;28;20037;-65
2023/05/24 01:14:21;;;;;;;4.50;3.85;;;;;;;;;;5016571;28;20022;-66
2023/05/24 01:17:02;;;;;;;4.38;3.97;;;;;;;;;;5016793;28;20057;-66
2023/05/24 01:20:05;;;;;;;4.43;4.03;;;;;;;;;;5016395;28;20026;-66
2023/05/24 01:22:55;;;;;;;4.20;3.90;;;;;;;;;;5016425;28;20030;-66
2023/05/24 01:25:40;;;;;;;;;;;;;;;;;;5016731;28;20480;-66
2023/05/24 01:28:07;;;;;;;5.38;4.18;;;;;;;;;;5016522;28;19910;-65
2023/05/24 01:30:35;;;;;;;4.43;4.03;;;;;;;;;;5016160;28;20029;-66
2023/05/24 01:33:01;;;;;;;4.45;4.07;;;;;;;;;;5016223;28;20018;-65
2023/05/24 01:35:26;;;;;;;4.15;3.80;;;;;;;;;;5016395;28;20037;-66
2023/05/24 01:37:52;;;;;;;4.40;4.00;;;;;;;;;;5015849;28;20050;-66
2023/05/24 01:40:18;;;;;;;4.50;4.10;;;;;;;;;;5016401;28;20065;-66
2023/05/24 01:42:43;;;;;;;4.55;4.15;;;;;;;;;;5016159;28;20049;-66
2023/05/24 01:45:15;;;;;;;4.20;3.80;;;;;;;;;;5016018;28;20454;-66
2023/05/24 01:47:43;;;;;;;4.20;3.80;;;;;;;;;;5016215;28;20028;-66
2023/05/24 01:50:24;;;;;;;5.65;4.03;;;;;;;;;;5015830;28;20025;-66
2023/05/24 01:52:52;;;;;;;5.47;4.30;;;;;;;;;;5015843;28;20034;-65
2023/05/24 01:55:19;;;;;;;4.65;4.22;;;;;;;;;;5015995;28;20110;-66
2023/05/24 01:57:49;;;;;;;4.10;3.80;;;;;;;;;;5015896;28;20035;-65
2023/05/24 02:00:17;;;;;;;4.72;4.32;;;;;;;;;;5015599;28;20049;-65
2023/05/24 02:02:43;;;;;;;4.22;3.90;;;;;;;;;;5015537;28;20032;-66
2023/05/24 02:05:10;;;;;;;4.07;3.78;;;;;;;;;;5015462;28;20125;-66
2023/05/24 02:07:35;;;;;;;6.00;3.85;;;;;;;;;;5015478;28;20030;-66
2023/05/24 02:10:01;;;;;;;4.95;4.25;;;;;;;;;;5015442;28;20026;-65
2023/05/24 02:12:26;;;;;;;4.20;3.80;;;;;;;;;;5015629;28;20148;-65
2023/05/24 02:14:53;;;;;;;7.80;3.80;;;;;;;;;;5015288;28;20397;-66
2023/05/24 02:17:19;;;;;;;4.25;3.85;;;;;;;;;;5015268;28;20034;-66
2023/05/24 02:19:44;;;;;;;4.45;4.05;;;;;;;;;;5015282;28;20032;-66
2023/05/24 02:22:11;;;;;;;4.35;3.95;;;;;;;;;;5015240;28;20032;-65
2023/05/24 02:24:39;;;;;;;5.18;4.15;;;;;;;;;;5014038;28;20029;-65
2023/05/24 02:27:05;;;;;;;4.55;4.15;;;;;;;;;;5015101;28;20148;-66
2023/05/24 02:29:30;;;;;;;5.25;4.28;;;;;;;;;;5015092;28;20500;-65
2023/05/24 02:31:56;;;;;;;7.07;4.05;;;;;;;;;;5015351;28;20030;-65
2023/05/24 02:34:22;;;;;;;4.53;4.13;;;;;;;;;;5015300;28;20037;-66
2023/05/24 02:36:49;;;;;;;4.18;3.88;;;;;;;;;;5014781;28;20073;-65
2023/05/24 02:39:14;;;;;;;3.97;3.60;;;;;;;;;;5013779;28;20093;-65
2023/05/24 02:41:40;;;;;;;5.40;3.80;;;;;;;;;;5014893;28;20022;-65
2023/05/24 02:44:06;;;;;;;4.75;3.83;;;;;;;;;;5014858;28;20029;-65
2023/05/24 02:46:32;;;;;;;3.88;3.58;;;;;;;;;;5015154;28;20040;-65
2023/05/24 02:48:57;;;;;;;4.53;3.70;;;;;;;;;;5014999;28;20424;-65
2023/05/24 02:51:23;;;;;;;4.00;3.70;;;;;;;;;;5014690;28;20025;-66
2023/05/24 02:53:48;;;;;;;4.25;3.90;;;;;;;;;;5015057;28;20042;-65
2023/05/24 02:56:16;;;;;;;4.03;3.63;;;;;;;;;;5015035;28;20493;-64
2023/05/24 02:58:43;;;;;;;4.00;3.70;;;;;;;;;;5014655;28;20026;-66
2023/05/24 03:01:11;;;;;;;4.30;3.90;;;;;;;;;;5014596;28;20494;-66
2023/05/24 03:03:38;;;;;;;4.30;3.90;;;;;;;;;;5014640;28;20025;-65
2023/05/24 03:06:03;;;;;;;4.43;4.03;;;;;;;;;;5014504;28;20386;-65
2023/05/24 03:08:29;;;;;;;4.28;3.88;;;;;;;;;;5014700;28;20102;-65
2023/05/24 03:10:54;;;;;;;4.18;3.78;;;;;;;;;;5013421;28;20034;-65
2023/05/24 03:13:20;;;;;;;4.40;4.05;;;;;;;;;;5014620;28;20536;-65
2023/05/24 03:15:45;;;;;;;4.43;3.78;;;;;;;;;;5014245;28;20030;-65
2023/05/24 03:18:11;;;;;;;4.07;3.78;;;;;;;;;;5014292;28;20065;-64
2023/05/24 03:20:36;;;;;;;3.50;3.20;;;;;;;;;;5014189;28;20386;-65
2023/05/24 03:23:02;;;;;;;4.07;3.70;;;;;;;;;;5014177;28;20030;-65
2023/05/24 03:25:27;;;;;;;4.20;3.80;;;;;;;;;;5014045;28;20045;-66
2023/05/24 03:27:53;;;;;;;4.13;3.72;;;;;;;;;;5014063;28;20057;-64
2023/05/24 03:30:18;;;;;;;4.43;3.95;;;;;;;;;;5013878;28;20026;-65
2023/05/24 03:32:44;;;;;;;3.97;3.63;;;;;;;;;;5014032;28;20058;-65
2023/05/24 03:35:10;;;;;;;4.28;3.88;;;;;;;;;;5013518;28;20366;-65
2023/05/24 03:37:36;;;;;;;3.83;3.53;;;;;;;;;;5013484;28;20054;-65
2023/05/24 03:40:03;;;;;;;3.92;3.60;;;;;;;;;;4996417;28;20038;-65
2023/05/24 03:42:29;;;;;;;4.00;3.60;;;;;;;;;;5013788;28;20033;-65
2023/05/24 03:44:54;;;;;;;4.07;3.67;;;;;;;;;;5013606;28;20026;-65
2023/05/24 03:47:20;;;;;;;4.30;3.83;;;;;;;;;;5013912;28;20041;-65
2023/05/24 03:49:45;;;;;;;5.00;4.05;;;;;;;;;;5013677;28;20022;-65
2023/05/24 03:52:11;;;;;;;3.70;3.40;;;;;;;;;;5013568;28;20022;-65
2023/05/24 03:54:37;;;;;;;4.20;3.80;;;;;;;;;;5013408;28;20022;-65
2023/05/24 03:57:02;;;;;;;4.03;3.63;;;;;;;;;;5013466;28;20026;-65
2023/05/24 03:59:29;;;;;;;3.95;3.55;;;;;;;;;;5013674;28;20036;-65
2023/05/24 04:01:55;;;;;;;3.83;3.50;;;;;;;;;;5013550;28;20033;-65
2023/05/24 04:04:21;;;;;;;3.85;3.55;;;;;;;;;;5013369;28;20390;-65
2023/05/24 04:06:46;;;;;;;4.13;3.83;;;;;;;;;;5012157;28;20036;-65
2023/05/24 04:09:12;;;;;;;3.70;3.40;;;;;;;;;;5013465;28;20363;-66
2023/05/24 04:11:38;;;;;;;3.63;3.33;;;;;;;;;;5013255;28;20539;-64
2023/05/24 04:14:03;;;;;;;4.05;3.75;;;;;;;;;;5013178;28;20026;-65
2023/05/24 04:16:32;;;;;;;3.80;3.50;;;;;;;;;;5013258;28;20025;-65
2023/05/24 04:18:59;;;;;;;4.60;3.50;;;;;;;;;;5013156;28;20030;-66
2023/05/24 04:21:25;;;;;;;4.00;3.60;;;;;;;;;;5011869;28;20377;-65
2023/05/24 04:23:51;;;;;;;4.10;3.70;;;;;;;;;;5012993;28;20105;-65
2023/05/24 04:26:17;;;;;;;6.20;3.53;;;;;;;;;;5012992;28;20040;-65
2023/05/24 04:28:42;;;;;;;4.88;3.67;;;;;;;;;;5012926;28;20091;-65
2023/05/24 04:31:08;;;;;;;3.67;3.35;;;;;;;;;;5012948;28;20049;-65
2023/05/24 04:33:35;;;;;;;3.70;3.40;;;;;;;;;;5012936;28;20025;-66
2023/05/24 04:36:01;;;;;;;3.88;3.58;;;;;;;;;;5012880;28;20049;-66
2023/05/24 04:38:28;;;;;;;3.80;3.50;;;;;;;;;;5012711;28;20038;-65
2023/05/24 04:41:00;;;;;;;3.92;3.45;;;;;;;;;;5012878;28;20026;-65
2023/05/24 04:43:26;;;;;;;4.28;3.88;;;;;;;;;;5013065;28;20072;-66
2023/05/24 04:45:53;;;;;;;3.80;3.50;;;;;;;;;;5012612;28;20022;-64
2023/05/24 04:48:20;;;;;;;3.97;3.67;;;;;;;;;;5012600;28;20025;-65
2023/05/24 04:50:46;;;;;;;3.78;3.47;;;;;;;;;;5012942;28;20029;-65
2023/05/24 04:53:13;;;;;;;3.88;3.58;;;;;;;;;;5012856;28;20029;-62
2023/05/24 04:55:40;;;;;;;4.07;3.70;;;;;;;;;;5012705;28;20075;-65
2023/05/24 04:58:06;;;;;;;3.83;3.53;;;;;;;;;;5012521;28;20034;-62
2023/05/24 05:00:31;;;;;;;4.13;3.38;;;;;;;;;;5012633;28;20041;-66
2023/05/24 05:02:57;;;;;;;3.70;3.40;;;;;;;;;;5012747;28;20030;-65
2023/05/24 05:05:23;;;;;;;3.72;3.42;;;;;;;;;;5012559;28;20377;-63
2023/05/24 05:07:48;;;;;;;4.15;3.75;;;;;;;;;;5012713;28;20374;-65
2023/05/24 05:10:14;;;;;;;4.30;3.80;;;;;;;;;;5012331;28;20388;-66
2023/05/24 05:12:40;;;;;;;4.50;3.50;;;;;;;;;;5012336;28;20037;-66
2023/05/24 05:15:06;;;;;;;3.72;3.42;;;;;;;;;;5012750;28;20026;-64
2023/05/24 05:17:32;;;;;;;4.53;3.90;;;;;;;;;;5012691;28;20041;-65
2023/05/24 05:19:57;;;;;;;3.78;3.47;;;;;;;;;;5012331;28;20634;-64
2023/05/24 05:22:23;;;;;;;4.00;3.47;;;;;;;;;;5012266;28;20097;-65
2023/05/24 05:24:48;;;;;;;3.85;3.55;;;;;;;;;;5012330;28;20028;-64
2023/05/24 05:27:14;;;;;;;4.00;3.60;;;;;;;;;;5012383;28;20026;-65
2023/05/24 05:29:40;;;;;;;3.60;3.30;;;;;;;;;;5012322;28;20041;-63
2023/05/24 05:32:06;;;;;;;3.75;3.40;;;;;;;;;;5012602;28;20417;-63
2023/05/24 05:34:31;;;;;;;4.15;3.63;;;;;;;;;;5012345;28;20149;-64
2023/05/24 05:36:57;;;;;;;4.15;3.75;;;;;;;;;;5012382;28;20038;-63
2023/05/24 05:39:22;;;;;;;4.88;3.35;;;;;;;;;;5012558;28;20073;-64
2023/05/24 05:41:48;;;;;;;4.25;3.60;;;;;;;;;;5012559;28;20362;-66
2023/05/24 05:44:14;;;;;;;3.80;3.50;;;;;;;;;;5012165;28;20034;-64
2023/05/24 05:46:42;;;;;;;3.97;3.67;;;;;;;;;;5012489;28;20037;-63
2023/05/24 05:49:08;;;;;;;3.47;3.17;;;;;;;;;;5012002;28;20033;-64
2023/05/24 05:51:35;;;;;;;3.78;3.47;;;;;;;;;;5012208;28;20033;-63
2023/05/24 05:54:00;;;;;;;3.75;3.35;;;;;;;;;;5012087;28;20061;-64
2023/05/24 05:56:26;;;;;;;4.07;3.70;;;;;;;;;;5012138;28;20083;-64
2023/05/24 05:58:52;;;;;;;4.13;3.70;;;;;;;;;;5014781;28;20115;-64
2023/05/24 06:01:17;;;;;;;4.13;3.55;;;;;;;;;;5015956;28;20030;-63
2023/05/24 06:03:43;;;;;;;3.92;3.53;;;;;;;;;;5015631;28;20102;-63
2023/05/24 06:06:09;;;;;;;3.55;3.25;;;;;;;;;;5015576;28;20021;-63
2023/05/24 06:08:35;;;;;;;3.95;3.55;;;;;;;;;;5015350;28;20026;-63
2023/05/24 06:11:01;;;;;;;3.42;3.17;;;;;;;;;;5015435;28;20030;-63
2023/05/24 06:13:27;;;;;;;3.38;3.08;;;;;;;;;;5015471;28;20030;-66
2023/05/24 06:15:53;;;;;;;3.95;3.65;;;;;;;;;;5015404;28;20037;-62
2023/05/24 06:18:19;;;;;;;4.50;3.50;;;;;;;;;;5015693;28;20422;-63
2023/05/24 06:20:45;;;;;;;3.72;3.42;;;;;;;;;;5015437;28;20385;-64
2023/05/24 06:23:12;;;;;;;3.90;3.50;;;;;;;;;;5015405;28;20030;-63
2023/05/24 06:25:39;;;;;;;4.13;3.72;;;;;;;;;;5015336;28;20508;-63
2023/05/24 06:28:04;;;;;;;3.70;3.40;;;;;;;;;;5015455;28;20377;-63
2023/05/24 06:30:32;;;;;;;3.72;3.42;;;;;;;;;;5015210;28;20034;-63
2023/05/24 06:32:58;;;;;;;4.13;3.72;;;;;;;;;;5015473;28;20053;-64
2023/05/24 06:35:23;;;;;;;4.00;3.60;;;;;;;;;;5015347;28;20461;-65
2023/05/24 06:37:49;;;;;;;3.80;3.50;;;;;;;;;;5014795;28;20489;-63
2023/05/24 06:40:15;;;;;;;3.97;3.67;;;;;;;;;;5014941;28;20084;-63
2023/05/24 06:42:40;;;;;;;3.55;3.25;;;;;;;;;;5014933;28;20026;-62
2023/05/24 06:45:07;;;;;;;3.90;3.60;;;;;;;;;;5014937;28;20025;-63
2023/05/24 06:47:32;;;;;;;4.43;3.60;;;;;;;;;;5014648;28;20038;-64
2023/05/24 06:49:59;;;;;;;3.83;3.53;;;;;;;;;;5014779;28;20040;-64
2023/05/24 06:52:25;;;;;;;3.50;3.20;;;;;;;;;;5014772;28;20034;-63
2023/05/24 06:54:51;;;;;;;4.30;3.72;;;;;;;;;;5014631;28;20137;-64
2023/05/24 06:57:16;;;;;;;4.05;3.75;;;;;;;;;;5014592;28;20033;-65
2023/05/24 06:59:42;;;;;;;3.95;3.55;;;;;;;;;;5013712;28;20377;-64
2023/05/24 07:02:08;;;;;;;3.58;3.28;;;;;;;;;;5014585;28;20490;-63
2023/05/24 07:04:33;;;;;;;4.20;3.85;;;;;;;;;;5014521;28;20439;-63
2023/05/24 07:06:59;;;;;;;4.65;3.65;;;;;;;;;;5014470;28;20029;-64
2023/05/24 07:09:24;;;;;;;3.70;3.40;;;;;;;;;;5013700;28;20026;-63
2023/05/24 07:11:50;;;;;;;5.18;3.40;;;;;;;;;;5014321;28;20030;-63
2023/05/24 07:14:15;;;;;;;4.10;3.80;;;;;;;;;;5014265;28;20028;-62
2023/05/24 07:16:44;;;;;;;3.97;3.60;;;;;;;;;;5014252;28;20033;-63
2023/05/24 07:19:09;;;;;;;3.58;3.28;;;;;;;;;;5014546;28;20119;-66
2023/05/24 07:21:36;;;;;;;3.80;3.40;;;;;;;;;;5012938;28;20053;-61
2023/05/24 07:24:02;;;;;;;4.50;3.72;;;;;;;;;;5014138;28;20041;-62
2023/05/24 07:26:28;;;;;;;3.83;3.53;;;;;;;;;;5014046;28;20486;-62
2023/05/24 07:28:53;;;;;;;3.97;3.60;;;;;;;;;;5013995;28;20072;-62
2023/05/24 07:31:19;;;;;;;4.38;3.97;;;;;;;;;;5014032;28;20026;-63
2023/05/24 07:33:45;;;;;;;3.85;3.55;;;;;;;;;;5014158;28;20022;-67
2023/05/24 07:36:10;;;;;;;3.60;3.30;;;;;;;;;;5013877;28;20050;-62
2023/05/24 07:38:36;;;;;;;3.92;3.63;;;;;;;;;;5013661;28;20509;-62
2023/05/24 07:41:03;;;;;;;4.32;3.63;;;;;;;;;;4999183;28;20509;-67
2023/05/24 07:43:29;;;;;;;3.53;3.22;;;;;;;;;;4994930;28;20027;-67
2023/05/24 07:45:55;;;;;;;4.38;3.55;;;;;;;;;;4994383;28;20371;-67
2023/05/24 07:48:20;;;;;;;3.60;3.30;;;;;;;;;;4990382;28;20118;-61
2023/05/24 07:50:49;;;;;;;3.53;3.22;;;;;;;;;;4992759;28;20097;-63
2023/05/24 07:53:15;;;;;;;3.85;3.53;;;;;;;;;;4993588;28;20117;-62
2023/05/24 07:55:41;;;;;;;5.07;3.70;;;;;;;;;;4994157;28;20049;-63
2023/05/24 07:58:06;;;;;;;4.10;3.70;;;;;;;;;;4991681;28;20058;-63
2023/05/24 08:00:32;;;;;;;3.50;3.20;;;;;;;;;;5000917;28;20083;-61
2023/05/24 08:02:58;;;;;;;3.70;3.40;;;;;;;;;;5002213;28;20068;-62
2023/05/24 08:05:24;;;;;;;3.80;3.50;;;;;;;;;;5002595;28;20034;-61
2023/05/24 08:07:50;;;;;;;3.70;3.40;;;;;;;;;;5001996;28;20030;-61
2023/05/24 08:10:16;;;;;;;3.60;3.30;;;;;;;;;;5001845;28;20041;-62
2023/05/24 08:12:41;;;;;;;3.60;3.30;;;;;;;;;;5000661;28;20014;-67
2023/05/24 08:15:08;;;;;;;3.63;3.33;;;;;;;;;;4996230;28;20073;-62
2023/05/24 08:17:33;;;;;;;7.35;3.45;;;;;;;;;;4987862;28;20026;-61
2023/05/24 08:19:59;;;;;;;3.40;3.10;;;;;;;;;;4993364;28;20034;-62
2023/05/24 08:22:25;;;;;;;12.13;3.60;;;;;;;;;;4992606;28;20033;-62
2023/05/24 08:24:51;;;;;;;4.45;3.25;;;;;;;;;;4993107;28;20022;-66
2023/05/24 08:27:17;;;;;;;7.70;3.50;;;;;;;;;;4992814;28;20029;-64
2023/05/24 08:29:42;;;;;;;4.10;3.63;;;;;;;;;;4990369;28;20034;-64
2023/05/24 08:32:08;;;;;;;3.70;3.40;;;;;;;;;;4989294;28;20589;-63
2023/05/24 08:34:38;;;;;;;3.67;3.38;;;;;;;;;;4991365;28;20646;-61
2023/05/24 08:37:04;;;;;;;3.50;3.20;;;;;;;;;;4991227;28;20143;-65
2023/05/24 08:39:30;;;;;;;3.20;3.00;;;;;;;;;;4991631;28;20034;-63
2023/05/24 08:41:57;;;;;;;3.45;3.15;;;;;;;;;;4991705;28;20030;-62
2023/05/24 08:44:23;;;;;;;3.42;3.13;;;;;;;;;;4991679;28;20430;-61
2023/05/24 08:46:50;;;;;;;4.22;3.30;;;;;;;;;;4991663;28;20026;-62
2023/05/24 08:49:15;;;;;;;3.40;3.13;;;;;;;;;;4991752;28;20066;-62
2023/05/24 08:51:43;;;;;;;3.67;3.38;;;;;;;;;;4991490;28;20092;-62
2023/05/24 08:54:12;;;;;;;3.63;3.33;;;;;;;;;;4991003;28;20517;-62
2023/05/24 08:56:39;;;;;;;3.47;3.17;;;;;;;;;;4989346;28;20030;-61
2023/05/24 08:59:05;;;;;;;3.55;3.20;;;;;;;;;;4991086;28;20099;-63
2023/05/24 09:01:31;;;;;;;5.10;3.38;;;;;;;;;;4991049;28;20026;-61
2023/05/24 09:03:59;;;;;;;6.10;3.40;;;;;;;;;;4991671;28;20090;-67
2023/05/24 09:06:25;;;;;;;3.92;3.55;;;;;;;;;;4995306;28;20116;-64
2023/05/24 09:08:52;;;;;;;3.65;3.35;;;;;;;;;;4991679;28;20076;-61
2023/05/24 09:11:20;;;;;;;3.50;3.20;;;;;;;;;;4991324;28;20498;-67
2023/05/24 09:13:46;;;;;;;3.80;3.45;;;;;;;;;;4999261;28;20026;-63
2023/05/24 09:16:15;;;;;;;3.58;3.28;;;;;;;;;;4995645;28;20031;-62
2023/05/24 09:18:43;;;;;;;3.42;3.13;;;;;;;;;;4990729;28;20030;-66
2023/05/24 09:21:12;;;;;;;3.67;3.38;;;;;;;;;;4989901;28;20386;-63
2023/05/24 09:23:40;;;;;;;4.10;3.63;;;;;;;;;;4991244;28;20034;-64
2023/05/24 09:26:07;;;;;;;3.63;3.33;;;;;;;;;;4990425;28;20030;-63
2023/05/24 09:28:32;;;;;;;3.30;3.05;;;;;;;;;;4990491;28;20037;-64
2023/05/24 09:31:03;;;;;;;4.35;3.17;;;;;;;;;;4990784;28;20034;-65
2023/05/24 09:33:32;;;;;;;3.50;3.20;;;;;;;;;;4992887;28;20019;-65
2023/05/24 09:35:59;;;;;;;3.80;3.50;;;;;;;;;;4994777;28;20033;-61
2023/05/24 09:38:26;;;;;;;8.23;3.38;;;;;;;;;;4992882;28;20489;-63
2023/05/24 09:41:05;;;;;;;3.30;3.03;;;;;;;;;;4993674;28;20030;-65
2023/05/24 09:43:36;;;;;;;3.40;3.10;;;;;;;;;;4994981;28;20034;-62
2023/05/24 09:46:03;;;;;;;4.72;3.30;;;;;;;;;;4994746;28;20129;-62
2023/05/24 09:48:29;;;;;;;3.60;3.30;;;;;;;;;;4994602;28;20037;-62
2023/05/24 09:51:08;;;;;;;3.30;3.10;;;;;;;;;;4994835;28;20032;-61
2023/05/24 09:53:34;;;;;;;3.15;2.95;;;;;;;;;;4995072;28;20109;-62
2023/05/24 09:56:02;;;;;;;3.47;3.17;;;;;;;;;;4994541;28;20129;-62
2023/05/24 09:58:31;;;;;;;3.20;3.00;;;;;;;;;;4994795;28;20045;-61
2023/05/24 10:01:09;;;;;;;3.50;3.20;;;;;;;;;;4994820;28;20042;-62
2023/05/24 10:03:36;;;;;;;3.40;3.10;;;;;;;;;;4994794;28;20118;-62
2023/05/24 10:06:10;;;;;;;3.60;3.30;;;;;;;;;;4993093;28;20034;-62
2023/05/24 10:08:35;;;;;;;4.28;3.60;;;;;;;;;;4994598;28;20434;-62
2023/05/24 10:11:05;;;;;;;3.67;3.38;;;;;;;;;;4994127;28;20129;-62
2023/05/24 10:13:35;;;;;;;3.30;3.10;;;;;;;;;;4994384;28;20042;-62
2023/05/24 10:16:02;;;;;;;3.53;3.22;;;;;;;;;;4994466;28;20030;-62
2023/05/24 10:18:28;;;;;;;3.40;3.10;;;;;;;;;;4993507;28;20695;-62
2023/05/24 10:20:58;;;;;;;3.50;3.13;;;;;;;;;;4993689;28;20062;-63
2023/05/24 10:23:28;;;;;;;3.30;3.00;;;;;;;;;;4993548;28;20030;-65
2023/05/24 10:26:08;;;;;;;3.35;3.10;;;;;;;;;;4993619;28;20037;-66
2023/05/24 10:28:40;;;;;;;3.65;3.35;;;;;;;;;;4991964;28;20491;-64
2023/05/24 10:31:18;;;;;;;3.92;3.40;;;;;;;;;;4993608;28;20429;-62
2023/05/24 10:33:45;;;;;;;4.13;3.47;;;;;;;;;;4993919;28;20092;-61
2023/05/24 10:36:14;;;;;;;3.22;3.00;;;;;;;;;;4993802;28;20034;-66
2023/05/24 10:38:40;;;;;;;5.07;3.60;;;;;;;;;;4993650;28;20461;-66
2023/05/24 10:41:07;;;;;;;3.20;3.00;;;;;;;;;;4993750;28;20038;-66
2023/05/24 10:43:34;;;;;;;4.03;3.50;;;;;;;;;;4993151;28;20401;-62
2023/05/24 10:46:02;;;;;;;4.63;3.30;;;;;;;;;;4992731;28;20113;-65
2023/05/24 10:48:28;;;;;;;2.88;2.67;;;;;;;;;;4993527;28;20026;-67
2023/05/24 10:50:53;;;;;;;3.33;3.08;;;;;;;;;;4993148;28;20036;-66
2023/05/24 10:53:21;;;;;;;3.90;3.00;;;;;;;;;;4993453;28;20072;-65
2023/05/24 10:55:58;;;;;;;3.22;3.03;;;;;;;;;;4993437;28;20062;-63
2023/05/24 10:58:44;;;;;;;3.50;3.20;;;;;;;;;;4993515;28;20042;-66
2023/05/24 11:01:33;;;;;;;3.75;3.45;;;;;;;;;;4993390;28;20375;-66
2023/05/24 11:04:17;;;;;;;3.63;3.33;;;;;;;;;;4993222;28;20041;-61
2023/05/24 11:07:04;;;;;;;3.70;3.40;;;;;;;;;;4992209;28;20038;-65
2023/05/24 11:09:34;;;;;;;3.28;2.92;;;;;;;;;;4991804;28;20509;-63
2023/05/24 11:12:02;;;;;;;3.78;3.38;;;;;;;;;;4990447;28;20031;-62
2023/05/24 11:14:29;;;;;;;3.58;3.25;;;;;;;;;;4992556;28;20066;-63
2023/05/24 11:17:01;;;;;;;3.30;3.00;;;;;;;;;;4992533;28;20536;-61
2023/05/24 11:19:34;;;;;;;5.15;3.10;;;;;;;;;;4992858;28;20470;-61
2023/05/24 11:22:02;;;;;;;3.30;3.10;;;;;;;;;;4992683;28;20053;-61
2023/05/24 11:24:29;;;;;;;3.50;3.20;;;;;;;;;;4990103;28;20042;-65
2023/05/24 11:26:55;;;;;;;4.25;3.42;;;;;;;;;;4992844;28;20030;-61
2023/05/24 11:29:22;;;;;;;6.63;3.22;;;;;;;;;;4992131;28;20035;-62
2023/05/24 11:31:49;;;;;;;3.10;2.83;;;;;;;;;;4992851;28;20115;-63
2023/05/24 11:34:16;;;;;;;4.07;3.05;;;;;;;;;;4992650;28;20386;-63
2023/05/24 11:36:42;;;;;;;3.22;2.92;;;;;;;;;;4992442;28;20034;-64
2023/05/24 11:39:08;;;;;;;3.50;3.20;;;;;;;;;;4992635;28;20438;-65
2023/05/24 11:41:38;;;;;;;3.30;3.00;;;;;;;;;;4992816;28;20045;-62
2023/05/24 11:44:03;;;;;;;;;;;;;;;;;;4992522;28;20018;-62
2023/05/24 11:46:30;;;;;;;6.80;3.28;;;;;;;;;;4992160;28;19914;-65
2023/05/24 11:48:56;;;;;;;3.70;3.38;;;;;;;;;;4991881;28;20022;-66
2023/05/24 11:51:29;;;;;;;3.53;3.22;;;;;;;;;;4992185;28;20030;-65
2023/05/24 11:53:56;;;;;;;3.22;3.00;;;;;;;;;;4992547;28;20651;-63
2023/05/24 11:56:26;;;;;;;4.97;3.20;;;;;;;;;;4991849;28;20121;-63
2023/05/24 11:58:59;;;;;;;3.42;3.10;;;;;;;;;;4992703;28;20018;-63
2023/05/24 12:01:27;;;;;;;7.82;3.65;;;;;;;;;;4993630;28;20498;-63
2023/05/24 12:03:53;;;;;;;8.38;3.42;;;;;;;;;;4991678;28;20031;-63
2023/05/24 12:06:20;;;;;;;9.73;3.50;;;;;;;;;;4990240;28;20026;-62
2023/05/24 12:08:47;;;;;;;3.10;2.80;;;;;;;;;;5004919;28;20478;-64
2023/05/24 12:11:13;;;;;;;4.97;3.20;;;;;;;;;;5011824;28;20034;-62
2023/05/24 12:13:39;;;;;;;4.68;3.20;;;;;;;;;;5011835;28;20567;-62
2023/05/24 12:16:05;;;;;;;11.63;4.40;;;;;;;;;;4993245;28;20022;-60
2023/05/24 12:18:31;;;;;;;6.68;3.40;;;;;;;;;;4994336;28;20558;-61
2023/05/24 12:20:56;;;;;;;4.88;3.50;;;;;;;;;;4992916;28;20030;-61
2023/05/24 12:23:25;;;;;;;5.50;3.20;;;;;;;;;;4991912;28;20121;-61
2023/05/24 12:26:00;;;;;;;4.63;3.35;;;;;;;;;;4992046;28;20026;-61
2023/05/24 12:28:27;;;;;;;6.15;2.90;;;;;;;;;;4991963;28;20426;-61
2023/05/24 12:30:53;;;;;;;4.35;3.22;;;;;;;;;;4991751;28;20045;-61
2023/05/24 12:33:19;;;;;;;5.95;3.30;;;;;;;;;;4991994;28;20038;-61
2023/05/24 12:35:46;;;;;;;6.95;3.53;;;;;;;;;;4991431;28;20049;-63
2023/05/24 12:38:12;;;;;;;4.57;3.20;;;;;;;;;;4991113;28;20038;-64
2023/05/24 12:40:41;;;;;;;5.45;3.05;;;;;;;;;;4990984;28;20772;-62
2023/05/24 12:43:07;;;;;;;6.10;3.50;;;;;;;;;;4990389;28;20125;-66
2023/05/24 12:45:33;;;;;;;10.02;3.40;;;;;;;;;;5000419;28;20121;-64
2023/05/24 12:48:01;;;;;;;8.38;3.50;;;;;;;;;;5000230;28;20108;-64
2023/05/24 12:50:27;;;;;;;9.88;3.30;;;;;;;;;;4999121;28;20038;-62
2023/05/24 12:52:53;;;;;;;4.18;2.80;;;;;;;;;;5000666;28;20037;-63
2023/05/24 12:55:21;;;;;;;20.70;3.72;;;;;;;;;;5004480;28;20034;-60
2023/05/24 12:57:51;;;;;;;11.85;3.38;;;;;;;;;;5009781;28;20037;-63
2023/05/24 13:00:18;;;;;;;22.38;4.32;;;;;;;;;;4995150;28;20081;-64
2023/05/24 13:02:43;;;;;;;10.25;3.40;;;;;;;;;;4991032;28;20936;-63
2023/05/24 13:05:09;;;;;;;15.32;4.18;;;;;;;;;;5019930;28;20034;-64
2023/05/24 13:07:35;;;;;;;11.45;3.72;;;;;;;;;;5012174;28;20030;-61
2023/05/24 13:10:01;;;;;;;9.48;3.45;;;;;;;;;;5017357;28;20037;-61
2023/05/24 13:12:26;;;;;;;5.95;3.20;;;;;;;;;;5017458;28;20022;-60
2023/05/24 13:14:52;;;;;;;13.73;3.38;;;;;;;;;;5017610;28;20033;-61
2023/05/24 13:17:19;;;;;;;7.63;3.40;;;;;;;;;;5015225;28;20025;-64
2023/05/24 13:19:46;;;;;;;4.53;3.20;;;;;;;;;;4997298;28;20029;-62
2023/05/24 13:22:12;;;;;;;11.00;3.55;;;;;;;;;;4998706;28;20033;-61
2023/05/24 13:24:37;;;;;;;8.02;3.03;;;;;;;;;;5007116;28;20036;-61
2023/05/24 13:27:03;;;;;;;12.05;3.50;;;;;;;;;;5017174;28;20037;-61
2023/05/24 13:29:29;;;;;;;12.73;3.38;;;;;;;;;;5017280;28;20448;-61
2023/05/24 13:31:55;;;;;;;20.00;3.60;;;;;;;;;;5017261;28;20026;-61
2023/05/24 13:34:25;;;;;;;14.55;3.58;;;;;;;;;;5005002;28;20026;-61
2023/05/24 13:36:51;;;;;;;12.95;3.55;;;;;;;;;;4999603;28;20493;-60
2023/05/24 13:39:18;;;;;;;10.50;3.30;;;;;;;;;;5002607;28;20038;-60
2023/05/24 13:41:44;;;;;;;11.57;3.40;;;;;;;;;;4996193;28;20389;-61
2023/05/24 13:44:11;;;;;;;7.40;3.60;;;;;;;;;;4997598;28;20033;-61
2023/05/24 13:46:37;;;;;;;16.63;3.95;;;;;;;;;;4997536;28;20473;-62
2023/05/24 13:49:03;;;;;;;10.48;3.53;;;;;;;;;;4997230;28;20544;-62
2023/05/24 13:51:29;;;;;;;13.88;3.58;;;;;;;;;;4997678;28;20038;-61
2023/05/24 13:53:55;;;;;;;27.27;4.22;;;;;;;;;;4997529;28;20049;-61
2023/05/24 13:56:22;;;;;;;6.78;3.42;;;;;;;;;;5001396;28;20073;-62
2023/05/24 13:58:48;;;;;;;7.40;3.45;;;;;;;;;;4997221;28;20026;-61
2023/05/24 14:01:14;;;;;;;12.70;3.25;;;;;;;;;;4997652;28;20038;-61
2023/05/24 14:03:40;;;;;;;9.30;3.17;;;;;;;;;;4992901;28;20084;-62
2023/05/24 14:06:06;;;;;;;4.18;2.97;;;;;;;;;;4997139;28;20768;-61
2023/05/24 14:08:32;;;;;;;3.85;3.20;;;;;;;;;;4996653;28;20029;-62
2023/05/24 14:10:58;;;;;;;6.03;3.33;;;;;;;;;;5005250;28;20478;-61
2023/05/24 14:13:23;;;;;;;7.65;3.53;;;;;;;;;;5014968;28;20038;-61
2023/05/24 14:15:49;;;;;;;6.95;3.13;;;;;;;;;;5017039;28;20026;-62
2023/05/24 14:18:15;;;;;;;8.20;3.05;;;;;;;;;;5016537;28;20430;-62
2023/05/24 14:20:41;;;;;;;5.07;2.88;;;;;;;;;;4998090;28;20026;-61
2023/05/24 14:23:07;;;;;;;5.70;3.05;;;;;;;;;;4993447;28;20026;-61
2023/05/24 14:25:33;;;;;;;4.18;3.50;;;;;;;;;;4993476;28;20022;-62
2023/05/24 14:27:59;;;;;;;14.02;3.35;;;;;;;;;;4994313;28;20041;-61
2023/05/24 14:30:27;;;;;;;7.75;3.03;;;;;;;;;;4997276;28;20034;-62
2023/05/24 14:32:52;;;;;;;7.15;3.30;;;;;;;;;;5005796;28;20039;-62
2023/05/24 14:35:18;;;;;;;6.85;3.15;;;;;;;;;;4996017;28;20042;-61
2023/05/24 14:37:44;;;;;;;5.85;3.10;;;;;;;;;;4993862;28;20117;-61
2023/05/24 14:40:10;;;;;;;9.32;3.60;;;;;;;;;;4999117;28;20532;-61
2023/05/24 14:42:36;;;;;;;5.15;3.13;;;;;;;;;;4993264;28;20493;-62
2023/05/24 14:45:01;;;;;;;3.20;2.90;;;;;;;;;;4990703;28;20026;-62